Time;durP1;ratioP1;P1;durP2;ratioP2;P2;SDS_P1;SDS_P2;PMS_P1;PMS_P2;Temp;Humidity;BMP_temperature;BMP_pressure;BME280_temperature;BME280_humidity;BME280_pressure;Samples;Min_cycle;Max_cycle;Signal;HPM_P1;HPM_P2
2021/06/25 00:02:21;;;;;;;13.73;6.25;;;28.90;66.40;;;;;;4977021;28;20449;-69
2021/06/25 00:04:47;;;;;;;15.75;6.63;;;29.00;66.20;;;;;;4976943;28;20145;-70
2021/06/25 00:07:13;;;;;;;21.73;6.57;;;29.00;65.90;;;;;;4976796;28;20484;-70
2021/06/25 00:09:39;;;;;;;14.90;5.63;;;28.90;65.90;;;;;;4976339;28;20054;-70
2021/06/25 00:12:07;;;;;;;18.23;5.82;;;28.70;66.10;;;;;;4975535;28;20042;-70
2021/06/25 00:14:34;;;;;;;15.52;6.15;;;28.60;67.00;;;;;;4975595;28;20031;-70
2021/06/25 00:17:01;;;;;;;17.50;6.53;;;28.60;67.00;;;;;;4976407;28;20398;-71
2021/06/25 00:19:27;;;;;;;15.82;5.10;;;28.40;67.00;;;;;;4976504;28;20285;-70
2021/06/25 00:21:53;;;;;;;17.95;7.00;;;28.40;67.30;;;;;;4976807;28;20107;-69
2021/06/25 00:24:21;;;;;;;17.95;6.68;;;28.60;66.80;;;;;;4976898;28;20035;-69
2021/06/25 00:26:50;;;;;;;17.88;6.85;;;28.40;67.00;;;;;;4976295;28;20121;-70
2021/06/25 00:29:18;;;;;;;17.08;6.60;;;28.20;67.80;;;;;;4976251;28;20030;-69
2021/06/25 00:31:44;;;;;;;16.75;6.15;;;28.20;67.90;;;;;;4976438;28;20033;-71
2021/06/25 00:34:10;;;;;;;17.27;6.88;;;28.20;67.90;;;;;;4976311;28;20031;-70
2021/06/25 00:36:36;;;;;;;20.33;6.95;;;28.20;67.90;;;;;;4976192;28;20472;-69
2021/06/25 00:39:03;;;;;;;22.10;6.80;;;28.00;68.40;;;;;;4976376;28;20031;-69
2021/06/25 00:41:28;;;;;;;16.73;6.43;;;28.00;68.40;;;;;;4976165;28;20097;-71
2021/06/25 00:43:54;;;;;;;16.10;6.18;;;28.10;68.10;;;;;;4976152;28;20483;-70
2021/06/25 00:46:20;;;;;;;18.38;6.40;;;28.00;68.50;;;;;;4975922;28;20093;-70
2021/06/25 00:48:46;;;;;;;18.95;6.20;;;28.10;68.50;;;;;;4976088;28;20376;-71
2021/06/25 00:51:12;;;;;;;15.98;6.38;;;28.20;68.50;;;;;;4975986;28;20105;-70
2021/06/25 00:53:41;;;;;;;20.35;6.68;;;28.20;68.10;;;;;;4976238;28;20102;-71
2021/06/25 00:56:09;;;;;;;19.02;7.43;;;28.00;68.30;;;;;;4975758;28;20106;-70
2021/06/25 00:58:35;;;;;;;15.82;6.90;;;28.00;68.20;;;;;;4975979;28;20022;-70
2021/06/25 01:01:02;;;;;;;16.08;6.57;;;27.80;69.00;;;;;;4975895;28;20494;-69
2021/06/25 01:03:27;;;;;;;21.35;7.03;;;27.70;69.40;;;;;;4974412;28;20364;-69
2021/06/25 01:05:53;;;;;;;18.17;6.75;;;27.80;69.10;;;;;;4974442;28;20126;-70
2021/06/25 01:08:19;;;;;;;20.23;6.40;;;27.80;69.10;;;;;;4975399;28;20062;-69
2021/06/25 01:10:45;;;;;;;16.15;6.70;;;28.00;68.90;;;;;;4976318;28;20076;-73
2021/06/25 01:13:11;;;;;;;19.73;7.07;;;27.90;68.40;;;;;;4978892;28;20037;-77
2021/06/25 01:15:37;;;;;;;16.08;6.40;;;27.90;68.40;;;;;;4980356;28;20031;-77
2021/06/25 01:18:03;;;;;;;15.40;6.90;;;28.00;68.30;;;;;;4979632;28;20062;-78
2021/06/25 01:20:32;;;;;;;21.95;7.20;;;28.00;68.40;;;;;;4976784;28;20027;-70
2021/06/25 01:22:58;;;;;;;18.10;6.30;;;27.80;68.50;;;;;;4975253;28;20483;-70
2021/06/25 01:25:30;;;;;;;16.23;7.07;;;27.90;68.50;;;;;;4975558;28;20046;-70
2021/06/25 01:28:01;;;;;;;18.67;7.50;;;28.00;68.90;;;;;;4975441;28;20066;-69
2021/06/25 01:30:36;;;;;;;20.38;7.22;;;27.80;68.30;;;;;;4975115;28;20050;-70
2021/06/25 01:33:06;;;;;;;18.63;6.68;;;27.90;68.20;;;;;;4975351;28;20027;-69
2021/06/25 01:35:32;;;;;;;18.25;7.32;;;27.70;68.40;;;;;;4975232;28;20025;-71
2021/06/25 01:37:58;;;;;;;21.02;6.95;;;27.70;68.30;;;;;;4975140;28;20035;-69
2021/06/25 01:40:24;;;;;;;21.95;7.30;;;27.70;68.40;;;;;;4975181;28;20034;-70
2021/06/25 01:42:51;;;;;;;18.30;6.20;;;27.70;68.60;;;;;;4975192;28;20033;-70
2021/06/25 01:45:20;;;;;;;17.50;6.25;;;27.60;68.60;;;;;;4974972;28;20107;-71
2021/06/25 01:47:47;;;;;;;17.85;7.05;;;27.70;68.70;;;;;;4974968;28;20070;-69
2021/06/25 01:50:24;;;;;;;22.63;7.95;;;27.80;68.30;;;;;;4974813;28;20034;-69
2021/06/25 01:52:52;;;;;;;16.02;6.40;;;27.90;68.20;;;;;;4974874;28;20026;-70
2021/06/25 01:55:19;;;;;;;17.65;6.30;;;27.90;67.90;;;;;;4975015;28;20105;-70
2021/06/25 01:57:45;;;;;;;14.77;6.15;;;28.00;68.10;;;;;;4974914;28;20030;-70
2021/06/25 02:00:12;;;;;;;14.18;6.40;;;27.90;67.90;;;;;;4974826;28;20114;-71
2021/06/25 02:02:38;;;;;;;16.73;6.55;;;27.80;68.40;;;;;;4974908;28;20077;-70
2021/06/25 02:05:06;;;;;;;19.48;6.43;;;27.60;68.40;;;;;;4974992;28;20469;-70
2021/06/25 02:07:32;;;;;;;17.92;6.22;;;27.50;69.00;;;;;;4974441;28;20510;-69
2021/06/25 02:09:58;;;;;;;19.65;6.50;;;27.70;68.70;;;;;;4974855;28;20035;-69
2021/06/25 02:12:26;;;;;;;19.17;6.63;;;28.00;68.20;;;;;;4974887;28;20034;-70
2021/06/25 02:14:52;;;;;;;19.02;6.15;;;27.90;68.20;;;;;;4974794;28;20070;-70
2021/06/25 02:17:19;;;;;;;21.42;6.50;;;28.00;68.00;;;;;;4974570;28;20085;-70
2021/06/25 02:19:44;;;;;;;17.52;6.50;;;28.00;67.80;;;;;;4974804;28;20030;-69
2021/06/25 02:22:11;;;;;;;20.17;6.85;;;28.20;67.30;;;;;;4973359;28;20543;-69
2021/06/25 02:24:37;;;;;;;17.63;6.00;;;28.40;66.80;;;;;;4974598;28;20023;-69
2021/06/25 02:27:04;;;;;;;18.88;5.63;;;28.50;66.70;;;;;;4974438;28;20409;-69
2021/06/25 02:29:29;;;;;;;15.20;6.57;;;28.60;66.20;;;;;;4974559;28;20011;-72
2021/06/25 02:31:55;;;;;;;17.27;6.10;;;28.60;66.00;;;;;;4974493;28;20106;-74
2021/06/25 02:34:21;;;;;;;19.02;6.25;;;28.60;66.20;;;;;;4974687;28;20019;-73
2021/06/25 02:36:47;;;;;;;16.90;7.55;;;28.60;66.10;;;;;;4975040;28;20042;-73
2021/06/25 02:39:13;;;;;;;17.00;5.95;;;28.60;66.10;;;;;;4975147;28;20031;-76
2021/06/25 02:41:40;;;;;;;22.13;7.43;;;28.70;66.00;;;;;;4974511;28;20034;-73
2021/06/25 02:44:07;;;;;;;20.52;6.97;;;28.70;66.00;;;;;;4974594;28;20484;-73
2021/06/25 02:46:32;;;;;;;19.27;6.95;;;28.40;66.80;;;;;;4974289;28;20081;-75
2021/06/25 02:48:58;;;;;;;17.27;6.32;;;28.40;67.00;;;;;;4974360;28;20050;-75
2021/06/25 02:51:24;;;;;;;22.30;6.97;;;28.50;66.80;;;;;;4974117;28;20039;-75
2021/06/25 02:53:50;;;;;;;19.85;6.63;;;28.50;66.70;;;;;;4974394;28;20019;-75
2021/06/25 02:56:17;;;;;;;20.35;7.05;;;28.50;66.90;;;;;;4974130;28;20085;-76
2021/06/25 02:58:43;;;;;;;17.50;6.97;;;28.30;67.80;;;;;;4972998;28;20065;-77
2021/06/25 03:01:09;;;;;;;18.23;6.88;;;28.10;67.80;;;;;;4972947;28;20486;-74
2021/06/25 03:03:35;;;;;;;18.83;7.35;;;28.00;68.10;;;;;;4973290;28;20424;-76
2021/06/25 03:06:00;;;;;;;18.17;6.40;;;28.10;68.40;;;;;;4972844;28;20042;-77
2021/06/25 03:08:26;;;;;;;17.65;6.93;;;28.20;68.70;;;;;;4973190;28;20117;-74
2021/06/25 03:10:52;;;;;;;15.80;6.57;;;28.30;67.70;;;;;;4974460;28;20034;-76
2021/06/25 03:13:19;;;;;;;14.48;6.25;;;28.40;67.60;;;;;;4974437;28;20023;-76
2021/06/25 03:15:46;;;;;;;17.90;6.40;;;28.40;67.50;;;;;;4974454;28;20027;-77
2021/06/25 03:18:13;;;;;;;16.55;6.72;;;28.30;67.30;;;;;;4974392;28;20035;-78
2021/06/25 03:20:39;;;;;;;17.88;6.80;;;28.20;67.70;;;;;;4974182;28;20110;-78
2021/06/25 03:23:06;;;;;;;16.92;6.57;;;28.30;67.80;;;;;;4973029;28;20035;-78
2021/06/25 03:25:32;;;;;;;18.45;6.38;;;28.20;68.00;;;;;;4974410;28;20070;-75
2021/06/25 03:27:57;;;;;;;21.02;9.20;;;28.30;68.20;;;;;;4974891;28;20043;-78
2021/06/25 03:30:24;;;;;;;16.77;6.78;;;28.20;68.10;;;;;;4974563;28;20428;-78
2021/06/25 03:32:50;;;;;;;25.13;7.60;;;28.20;68.20;;;;;;4974153;28;20027;-79
2021/06/25 03:35:15;;;;;;;19.35;7.63;;;28.10;69.00;;;;;;4974180;28;20049;-78
2021/06/25 03:37:41;;;;;;;22.50;7.50;;;28.20;68.30;;;;;;4974460;28;20034;-78
2021/06/25 03:40:11;;;;;;;20.27;8.20;;;28.20;68.30;;;;;;4974140;28;20499;-75
2021/06/25 03:42:38;;;;;;;19.77;7.18;;;28.20;68.30;;;;;;4973960;28;20031;-77
2021/06/25 03:45:06;;;;;;;16.92;6.82;;;28.30;68.00;;;;;;4977646;28;20025;-77
2021/06/25 03:47:32;;;;;;;17.25;7.05;;;28.30;68.00;;;;;;4977188;28;20039;-78
2021/06/25 03:49:57;;;;;;;17.48;6.97;;;28.30;67.70;;;;;;4977567;28;20029;-76
2021/06/25 03:52:23;;;;;;;18.63;6.75;;;28.20;67.70;;;;;;4975976;28;20118;-77
2021/06/25 03:54:49;;;;;;;14.95;6.45;;;28.30;67.80;;;;;;4977582;28;20102;-78
2021/06/25 03:57:15;;;;;;;18.05;6.30;;;28.40;67.60;;;;;;4977274;28;20431;-76
2021/06/25 03:59:41;;;;;;;18.08;7.28;;;28.40;67.30;;;;;;4975954;28;20033;-77
2021/06/25 04:02:09;;;;;;;18.85;6.82;;;28.40;67.50;;;;;;4977212;28;20026;-78
2021/06/25 04:04:36;;;;;;;21.42;6.97;;;28.30;67.60;;;;;;4977098;28;20398;-77
2021/06/25 04:07:03;;;;;;;18.15;6.32;;;28.30;67.70;;;;;;4975607;28;20046;-78
2021/06/25 04:09:29;;;;;;;15.35;7.00;;;28.30;67.60;;;;;;4977119;28;20459;-74
2021/06/25 04:11:56;;;;;;;27.75;7.88;;;28.30;67.60;;;;;;4977395;28;20033;-75
2021/06/25 04:14:21;;;;;;;22.17;6.63;;;28.10;68.20;;;;;;4977625;28;20089;-78
2021/06/25 04:16:47;;;;;;;18.95;6.75;;;28.20;67.80;;;;;;4977933;28;20480;-75
2021/06/25 04:19:13;;;;;;;20.40;6.88;;;28.20;68.00;;;;;;4978015;28;20037;-73
2021/06/25 04:21:39;;;;;;;14.93;6.55;;;28.20;67.90;;;;;;4975840;28;20499;-77
2021/06/25 04:24:05;;;;;;;13.13;6.35;;;28.10;67.90;;;;;;4977337;28;20078;-73
2021/06/25 04:26:31;;;;;;;16.90;6.70;;;28.00;68.50;;;;;;4976996;28;20103;-76
2021/06/25 04:28:58;;;;;;;26.63;7.15;;;28.00;68.30;;;;;;4975467;28;20031;-74
2021/06/25 04:31:24;;;;;;;18.73;8.10;;;27.80;69.30;;;;;;4975409;28;20118;-70
2021/06/25 04:33:50;;;;;;;19.80;7.70;;;27.80;68.60;;;;;;4976745;28;20130;-73
2021/06/25 04:36:15;;;;;;;17.90;6.82;;;27.70;69.00;;;;;;4976718;28;20019;-73
2021/06/25 04:38:41;;;;;;;22.27;8.18;;;27.70;69.10;;;;;;4976485;28;20031;-71
2021/06/25 04:41:07;;;;;;;18.08;7.00;;;27.90;68.60;;;;;;4976238;28;20027;-70
2021/06/25 04:43:33;;;;;;;23.65;8.25;;;27.70;68.80;;;;;;4976255;28;20027;-71
2021/06/25 04:45:59;;;;;;;22.75;7.80;;;27.40;69.40;;;;;;4975913;28;20114;-70
2021/06/25 04:48:27;;;;;;;21.50;7.95;;;27.30;69.80;;;;;;4975801;28;20039;-71
2021/06/25 04:50:53;;;;;;;20.27;7.97;;;27.20;70.00;;;;;;4976148;28;20467;-71
2021/06/25 04:53:19;;;;;;;21.98;7.95;;;27.10;70.40;;;;;;4975918;28;20081;-71
2021/06/25 04:55:45;;;;;;;23.33;8.40;;;27.10;70.60;;;;;;4975045;28;20041;-71
2021/06/25 04:58:16;;;;;;;17.60;7.45;;;27.00;70.90;;;;;;4975934;28;20035;-71
2021/06/25 05:00:43;;;;;;;22.30;7.82;;;27.00;71.00;;;;;;4975877;28;20077;-71
2021/06/25 05:03:09;;;;;;;21.17;7.85;;;27.00;70.80;;;;;;4975787;28;20089;-70
2021/06/25 05:05:36;;;;;;;22.25;8.75;;;27.00;70.90;;;;;;4974646;28;20022;-70
2021/06/25 05:08:03;;;;;;;18.08;6.55;;;27.00;71.20;;;;;;4975386;28;20412;-72
2021/06/25 05:10:29;;;;;;;23.00;7.57;;;27.00;71.10;;;;;;4975727;28;20489;-70
2021/06/25 05:12:55;;;;;;;17.88;7.10;;;27.10;70.80;;;;;;4975673;28;20527;-71
2021/06/25 05:15:21;;;;;;;19.00;8.00;;;27.10;70.70;;;;;;4974251;28;20029;-71
2021/06/25 05:17:49;;;;;;;17.65;7.28;;;27.30;70.20;;;;;;4975341;28;20038;-72
2021/06/25 05:20:16;;;;;;;18.02;7.63;;;27.00;70.50;;;;;;4975601;28;20027;-71
2021/06/25 05:22:42;;;;;;;19.35;7.25;;;27.20;70.40;;;;;;4975714;28;20106;-71
2021/06/25 05:25:08;;;;;;;19.15;8.05;;;27.40;70.00;;;;;;4975530;28;20448;-73
2021/06/25 05:27:34;;;;;;;26.23;7.22;;;27.40;69.30;;;;;;4976067;28;20045;-76
2021/06/25 05:30:00;;;;;;;18.27;7.72;;;27.50;69.70;;;;;;4975486;28;20022;-79
2021/06/25 05:32:25;;;;;;;21.25;8.30;;;27.50;69.30;;;;;;4975322;28;20464;-80
2021/06/25 05:34:51;;;;;;;22.50;8.27;;;27.50;69.20;;;;;;4975883;28;20392;-79
2021/06/25 05:37:17;;;;;;;18.83;7.18;;;27.50;69.10;;;;;;4977988;28;20038;-71
2021/06/25 05:39:43;;;;;;;25.27;7.95;;;27.50;69.10;;;;;;4969652;28;20031;-78
2021/06/25 05:42:09;;;;;;;17.52;6.93;;;27.50;69.40;;;;;;4963840;28;20373;-69
2021/06/25 05:44:35;;;;;;;26.23;7.38;;;27.60;69.20;;;;;;4955822;28;20520;-69
2021/06/25 05:47:02;;;;;;;19.85;6.60;;;27.70;69.10;;;;;;4962858;28;20090;-71
2021/06/25 05:49:28;;;;;;;18.20;7.07;;;27.80;68.70;;;;;;4958176;28;20023;-69
2021/06/25 05:51:54;;;;;;;16.55;6.93;;;27.80;68.40;;;;;;4968489;28;20033;-70
2021/06/25 05:54:20;;;;;;;18.10;7.07;;;27.80;68.20;;;;;;4972642;28;20026;-82
2021/06/25 05:56:46;;;;;;;18.60;7.18;;;27.70;68.60;;;;;;4975102;28;20106;-70
2021/06/25 05:59:12;;;;;;;16.95;6.65;;;27.70;68.60;;;;;;4970063;28;20026;-72
2021/06/25 06:01:38;;;;;;;21.10;7.25;;;27.60;68.70;;;;;;4963991;28;20094;-73
2021/06/25 06:04:04;;;;;;;18.27;6.82;;;27.70;68.90;;;;;;4964311;28;20229;-72
2021/06/25 06:06:29;;;;;;;17.95;6.30;;;27.60;68.80;;;;;;4969429;28;20031;-70
2021/06/25 06:08:55;;;;;;;21.63;6.60;;;27.70;68.90;;;;;;4966885;28;20047;-73
2021/06/25 06:11:21;;;;;;;17.08;6.97;;;27.70;68.60;;;;;;4965351;28;20016;-74
2021/06/25 06:13:46;;;;;;;16.60;6.30;;;27.70;68.40;;;;;;4963159;28;20027;-73
2021/06/25 06:16:14;;;;;;;23.95;6.65;;;28.10;67.70;;;;;;4970609;28;20476;-76
2021/06/25 06:18:46;;;;;;;19.52;6.43;;;28.20;67.10;;;;;;4968434;28;20023;-86
2021/06/25 06:21:13;;;;;;;19.80;7.47;;;28.50;66.20;;;;;;4968854;28;20047;-83
2021/06/25 06:32:25;;;;;;;18.52;6.65;;;28.80;65.20;;;;;;4954768;28;20027;-82
2021/06/25 06:34:51;;;;;;;18.48;6.68;;;29.10;64.30;;;;;;4957453;28;20039;-82
2021/06/25 06:37:20;;;;;;;26.83;7.10;;;29.00;64.40;;;;;;4955883;29;20030;-86
2021/06/25 06:39:49;;;;;;;21.40;7.38;;;29.10;64.40;;;;;;4955849;28;20023;-86
2021/06/25 06:42:15;;;;;;;23.42;7.22;;;29.20;64.70;;;;;;4955738;28;20039;-83
2021/06/25 06:44:43;;;;;;;26.60;7.95;;;29.30;63.80;;;;;;4955889;28;20024;-84
2021/06/25 06:47:09;;;;;;;16.45;6.65;;;29.60;63.30;;;;;;4955973;28;20140;-85
2021/06/25 06:49:35;;;;;;;25.30;7.43;;;29.80;62.30;;;;;;4954543;28;20112;-83
2021/06/25 06:52:06;;;;;;;19.05;6.20;;;30.10;61.30;;;;;;4967868;28;20142;-73
2021/06/25 06:54:35;;;;;;;21.17;6.35;;;30.70;61.10;;;;;;4957885;28;20042;-84
2021/06/25 06:57:01;;;;;;;25.73;6.70;;;31.10;58.80;;;;;;4957171;28;20074;-86
2021/06/25 06:59:28;;;;;;;22.20;6.00;;;31.40;59.00;;;;;;4955983;29;20058;-85
2021/06/25 07:01:54;;;;;;;20.98;5.70;;;31.70;58.40;;;;;;4967400;28;20059;-81
2021/06/25 07:04:20;;;;;;;24.73;5.93;;;32.00;57.50;;;;;;4960122;28;20028;-71
2021/06/25 07:06:45;;;;;;;18.70;6.60;;;32.30;57.10;;;;;;4975991;28;20049;-73
2021/06/25 07:09:11;;;;;;;23.45;6.70;;;32.50;56.80;;;;;;4982324;28;20063;-79
2021/06/25 07:11:37;;;;;;;23.88;6.32;;;32.50;56.70;;;;;;4976384;28;20031;-74
2021/06/25 07:14:03;;;;;;;19.77;6.03;;;32.40;56.60;;;;;;4978843;28;20029;-81
2021/06/25 07:16:28;;;;;;;22.77;6.32;;;32.50;56.60;;;;;;4974076;28;20376;-75
2021/06/25 07:18:54;;;;;;;21.08;6.32;;;32.60;56.40;;;;;;4976458;28;20584;-82
2021/06/25 07:21:20;;;;;;;23.92;6.10;;;32.60;56.00;;;;;;4977940;28;20030;-81
2021/06/25 07:23:46;;;;;;;18.85;5.55;;;32.60;55.60;;;;;;4977926;28;20539;-81
2021/06/25 07:26:14;;;;;;;23.02;6.00;;;32.60;55.30;;;;;;4977884;28;20043;-80
2021/06/25 07:28:39;;;;;;;21.48;6.75;;;32.60;54.10;;;;;;4976092;28;20046;-69
2021/06/25 07:31:05;;;;;;;24.73;6.30;;;32.70;55.10;;;;;;4977477;28;20027;-69
2021/06/25 07:33:31;;;;;;;21.33;5.75;;;32.80;55.10;;;;;;4977494;28;20388;-68
2021/06/25 07:35:57;;;;;;;19.58;5.43;;;32.80;54.80;;;;;;4977168;28;20035;-69
2021/06/25 07:38:23;;;;;;;15.70;5.80;;;32.80;54.80;;;;;;4977463;28;20499;-69
2021/06/25 07:40:49;;;;;;;22.23;6.20;;;32.70;54.70;;;;;;4977271;28;20062;-68
2021/06/25 07:43:15;;;;;;;22.60;8.48;;;32.60;54.80;;;;;;4977368;28;20436;-66
2021/06/25 07:45:41;;;;;;;14.80;5.20;;;32.70;54.90;;;;;;4975907;28;20022;-66
2021/06/25 07:48:07;;;;;;;20.75;6.25;;;32.60;54.50;;;;;;4977184;28;20054;-69
2021/06/25 07:50:33;;;;;;;18.65;5.32;;;32.30;54.10;;;;;;4977346;28;20029;-68
2021/06/25 07:53:06;;;;;;;21.08;5.80;;;32.40;54.10;;;;;;4977090;28;20046;-68
2021/06/25 07:55:33;;;;;;;;;;;32.60;52.50;;;;;;4977381;28;20019;-68
2021/06/25 07:57:59;;;;;;;24.20;4.82;;;32.60;49.40;;;;;;4977202;28;19914;-68
2021/06/25 08:00:28;;;;;;;18.02;4.72;;;32.50;51.80;;;;;;4976986;28;20023;-71
2021/06/25 08:02:55;;;;;;;14.50;4.60;;;32.70;51.10;;;;;;4976977;28;20039;-68
2021/06/25 08:05:22;;;;;;;16.10;4.07;;;32.80;51.00;;;;;;4976894;28;20042;-70
2021/06/25 08:07:48;;;;;;;17.10;5.22;;;32.80;50.70;;;;;;4976306;28;20080;-67
2021/06/25 08:10:14;;;;;;;18.65;4.47;;;32.70;50.30;;;;;;4977030;28;20026;-67
2021/06/25 08:12:39;;;;;;;17.10;4.47;;;32.70;50.60;;;;;;4977078;28;20034;-68
2021/06/25 08:15:06;;;;;;;16.27;4.80;;;32.60;50.40;;;;;;4977352;28;20026;-73
2021/06/25 08:17:32;;;;;;;19.75;4.82;;;32.60;50.40;;;;;;4976759;28;20472;-68
2021/06/25 08:19:57;;;;;;;20.02;5.03;;;32.60;51.10;;;;;;4975207;28;20033;-68
2021/06/25 08:22:23;;;;;;;18.17;4.65;;;32.60;51.20;;;;;;4976876;28;20053;-69
2021/06/25 08:24:49;;;;;;;15.68;5.05;;;32.60;51.10;;;;;;4976534;28;20090;-70
2021/06/25 08:27:15;;;;;;;18.98;4.50;;;32.50;51.00;;;;;;4976135;28;20053;-68
2021/06/25 08:29:40;;;;;;;18.92;8.38;;;32.40;50.40;;;;;;4976141;28;20154;-68
2021/06/25 08:32:07;;;;;;;13.30;5.88;;;32.40;50.50;;;;;;4976278;28;20554;-68
2021/06/25 08:34:32;;;;;;;15.48;4.25;;;32.40;50.10;;;;;;4976417;28;20015;-66
2021/06/25 08:36:58;;;;;;;14.63;4.15;;;32.40;49.30;;;;;;4976975;28;20126;-74
2021/06/25 08:39:26;;;;;;;11.93;4.65;;;32.30;49.30;;;;;;4977189;28;20475;-67
2021/06/25 08:41:54;;;;;;;20.85;4.55;;;32.20;49.00;;;;;;4976282;28;20033;-67
2021/06/25 08:44:20;;;;;;;14.15;4.75;;;32.20;49.50;;;;;;4976140;28;20025;-67
2021/06/25 08:46:47;;;;;;;13.30;4.05;;;32.30;49.80;;;;;;4975713;28;20047;-67
2021/06/25 08:49:17;;;;;;;13.05;3.92;;;32.20;49.40;;;;;;4975818;28;20031;-67
2021/06/25 08:51:44;;;;;;;11.65;4.07;;;32.10;49.20;;;;;;4975693;28;20388;-67
2021/06/25 08:54:11;;;;;;;14.18;4.20;;;32.00;49.30;;;;;;4975864;28;20349;-68
2021/06/25 08:56:37;;;;;;;16.20;4.50;;;31.90;49.30;;;;;;4975880;28;20043;-67
2021/06/25 08:59:03;;;;;;;15.73;4.18;;;31.90;49.90;;;;;;4975730;28;20499;-69
2021/06/25 09:01:36;;;;;;;10.43;3.95;;;31.80;50.00;;;;;;4975486;28;20039;-71
2021/06/25 09:04:04;;;;;;;10.02;3.70;;;31.80;50.00;;;;;;4975874;28;20019;-70
2021/06/25 09:06:32;;;;;;;16.10;4.35;;;31.90;50.20;;;;;;4975283;28;20030;-68
2021/06/25 09:09:16;;;;;;;12.27;4.30;;;32.10;50.30;;;;;;4974066;28;20529;-69
2021/06/25 09:11:44;;;;;;;15.80;4.90;;;32.20;50.10;;;;;;4975794;28;20357;-70
2021/06/25 09:14:11;;;;;;;14.95;4.32;;;32.40;49.90;;;;;;4975402;28;20032;-68
2021/06/25 09:16:38;;;;;;;15.13;4.60;;;32.30;51.00;;;;;;4975027;28;20054;-68
2021/06/25 09:19:13;;;;;;;12.48;4.75;;;32.20;50.60;;;;;;4975552;28;20039;-68
2021/06/25 09:21:44;;;;;;;11.38;4.40;;;32.20;50.10;;;;;;4975738;28;20077;-68
2021/06/25 09:24:26;;;;;;;11.88;4.05;;;32.20;50.60;;;;;;4975953;28;20019;-67
2021/06/25 09:27:03;;;;;;;13.32;4.80;;;32.10;50.60;;;;;;4975476;28;20082;-68
2021/06/25 09:29:40;;;;;;;10.27;4.10;;;32.20;50.40;;;;;;4975339;28;20107;-69
2021/06/25 09:32:35;;;;;;;12.52;3.85;;;32.20;50.20;;;;;;4975808;28;20118;-69
2021/06/25 09:35:14;;;;;;;12.90;3.33;;;32.40;49.10;;;;;;4975457;28;20441;-71
2021/06/25 09:37:43;;;;;;;7.97;4.10;;;32.40;47.80;;;;;;4975886;28;20026;-77
2021/06/25 09:40:09;;;;;;;9.48;3.60;;;32.50;48.10;;;;;;4976888;28;20473;-82
2021/06/25 09:42:35;;;;;;;12.02;4.00;;;32.50;48.10;;;;;;4975490;28;20026;-84
2021/06/25 09:45:15;;;;;;;13.10;4.07;;;32.50;48.10;;;;;;4976046;28;20506;-83
2021/06/25 09:48:02;;;;;;;17.85;4.40;;;32.50;48.00;;;;;;4976019;28;20081;-84
2021/06/25 09:50:33;;;;;;;12.75;4.25;;;32.40;47.90;;;;;;4975432;28;20093;-85
2021/06/25 09:53:04;;;;;;;12.93;3.60;;;32.40;48.60;;;;;;4975807;28;20045;-80
2021/06/25 09:55:49;;;;;;;13.73;4.65;;;32.40;48.70;;;;;;4976193;28;20110;-78
2021/06/25 09:58:35;;;;;;;13.30;4.13;;;32.20;48.80;;;;;;4974917;28;20034;-79
2021/06/25 10:01:28;;;;;;;13.95;4.07;;;32.20;49.70;;;;;;4974714;28;20102;-74
2021/06/25 10:04:02;;;;;;;13.65;4.05;;;32.30;49.80;;;;;;4975845;28;20551;-73
2021/06/25 10:06:34;;;;;;;12.52;4.00;;;32.30;49.50;;;;;;4974945;28;20122;-77
2021/06/25 10:09:03;;;;;;;16.38;4.20;;;32.40;48.90;;;;;;4974970;28;20113;-81
2021/06/25 10:11:33;;;;;;;14.80;3.78;;;32.40;49.50;;;;;;4974112;28;20030;-83
2021/06/25 10:14:05;;;;;;;11.77;4.45;;;32.50;49.50;;;;;;4974037;28;20101;-80
2021/06/25 10:16:31;;;;;;;12.43;4.43;;;32.50;49.30;;;;;;4977305;28;20047;-67
2021/06/25 10:18:58;;;;;;;10.45;3.45;;;32.60;49.30;;;;;;4974959;28;20134;-69
2021/06/25 10:21:30;;;;;;;11.95;3.78;;;32.50;49.30;;;;;;4973414;28;20086;-70
2021/06/25 10:23:58;;;;;;;8.38;3.58;;;32.50;48.60;;;;;;4974571;28;20109;-66
2021/06/25 10:26:24;;;;;;;10.43;3.50;;;32.50;48.30;;;;;;4973245;28;20039;-68
2021/06/25 10:28:52;;;;;;;10.98;3.50;;;32.40;47.90;;;;;;4974691;28;20033;-68
2021/06/25 10:31:23;;;;;;;10.90;3.58;;;32.40;47.90;;;;;;4974462;28;20035;-66
2021/06/25 10:33:53;;;;;;;12.38;3.58;;;32.50;47.30;;;;;;4974264;28;20027;-68
2021/06/25 10:36:22;;;;;;;11.57;4.40;;;32.50;46.90;;;;;;4974154;28;20031;-66
2021/06/25 10:38:49;;;;;;;10.02;3.70;;;32.50;47.30;;;;;;4972881;28;20042;-68
2021/06/25 10:41:15;;;;;;;8.02;2.42;;;32.40;45.90;;;;;;4974709;28;20037;-69
2021/06/25 10:43:46;;;;;;;12.18;3.60;;;32.40;45.20;;;;;;4974708;28;20023;-68
2021/06/25 10:46:34;;;;;;;8.35;2.70;;;32.30;45.20;;;;;;4973321;28;20043;-70
2021/06/25 10:49:14;;;;;;;14.85;9.73;;;32.40;45.10;;;;;;4974303;28;20031;-67
2021/06/25 10:51:45;;;;;;;8.50;3.97;;;32.50;44.70;;;;;;4973079;28;20461;-70
2021/06/25 10:54:20;;;;;;;8.80;3.20;;;32.50;44.00;;;;;;4976895;28;20085;-68
2021/06/25 10:56:48;;;;;;;8.07;2.67;;;32.50;44.30;;;;;;4978242;28;20031;-66
2021/06/25 10:59:29;;;;;;;6.88;2.50;;;32.60;43.20;;;;;;4978119;28;20388;-69
2021/06/25 11:02:03;;;;;;;6.80;2.15;;;32.70;42.80;;;;;;4977106;28;20034;-67
2021/06/25 11:04:42;;;;;;;6.47;2.50;;;32.70;42.90;;;;;;4978006;28;20027;-67
2021/06/25 11:07:40;;;;;;;7.05;2.30;;;32.70;43.00;;;;;;4978110;28;20039;-69
2021/06/25 11:10:08;;;;;;;11.55;2.72;;;32.70;44.10;;;;;;4978607;28;20046;-68
2021/06/25 11:12:35;;;;;;;7.25;2.35;;;32.90;44.40;;;;;;4978017;28;20055;-67
2021/06/25 11:15:08;;;;;;;5.80;2.20;;;32.90;44.40;;;;;;4976356;28;20023;-67
2021/06/25 11:17:54;;;;;;;7.90;2.10;;;32.90;44.40;;;;;;4977114;28;20035;-66
2021/06/25 11:20:30;;;;;;;7.57;2.30;;;32.90;44.20;;;;;;4977748;28;20030;-67
2021/06/25 11:23:22;;;;;;;11.98;2.97;;;32.90;44.50;;;;;;4976018;28;20031;-66
2021/06/25 11:26:24;;;;;;;8.98;2.83;;;32.90;45.20;;;;;;4979287;28;20388;-68
2021/06/25 11:29:10;;;;;;;6.68;2.60;;;32.90;45.00;;;;;;4979204;28;20386;-67
2021/06/25 11:31:36;;;;;;;10.30;2.72;;;32.70;45.40;;;;;;4985694;28;20053;-68
2021/06/25 11:34:04;;;;;;;11.15;2.85;;;32.60;45.70;;;;;;4988934;28;20075;-70
2021/06/25 11:36:41;;;;;;;14.35;3.03;;;32.60;46.20;;;;;;4989071;28;20043;-74
2021/06/25 11:39:11;;;;;;;7.65;2.90;;;32.70;46.10;;;;;;4987589;28;20078;-77
2021/06/25 11:41:44;;;;;;;6.68;2.50;;;32.70;45.70;;;;;;4978259;28;20030;-80
2021/06/25 11:44:25;;;;;;;;;;;32.90;45.60;;;;;;4978027;28;20034;-75
2021/06/25 11:47:08;;;;;;;8.30;2.70;;;32.90;45.30;;;;;;4976874;28;20004;-67
2021/06/25 11:49:43;;;;;;;7.00;2.60;;;32.90;45.00;;;;;;4976760;28;20042;-67
2021/06/25 11:52:14;;;;;;;9.95;2.30;;;32.90;44.80;;;;;;4977094;28;20041;-67
2021/06/25 11:54:41;;;;;;;11.07;2.60;;;32.80;44.50;;;;;;4976927;28;20027;-67
2021/06/25 11:57:23;;;;;;;9.73;2.65;;;33.00;44.40;;;;;;4976605;28;20031;-69
2021/06/25 12:00:05;;;;;;;9.60;2.40;;;32.90;44.30;;;;;;4977121;28;20049;-68
2021/06/25 12:02:43;;;;;;;6.97;2.58;;;33.00;44.10;;;;;;4976777;28;20026;-68
2021/06/25 12:05:11;;;;;;;5.30;2.00;;;33.10;44.10;;;;;;4976193;28;20035;-67
2021/06/25 12:07:37;;;;;;;7.72;2.45;;;32.90;43.70;;;;;;4976225;28;20058;-68
2021/06/25 12:10:04;;;;;;;7.18;2.20;;;32.90;43.60;;;;;;4976245;28;20019;-66
2021/06/25 12:12:33;;;;;;;7.57;2.40;;;33.00;43.60;;;;;;4977072;28;20065;-69
2021/06/25 12:15:02;;;;;;;8.63;2.22;;;33.00;43.20;;;;;;4976277;28;20106;-66
2021/06/25 12:17:49;;;;;;;5.82;2.13;;;33.00;43.90;;;;;;4976418;28;20029;-69
2021/06/25 12:20:21;;;;;;;8.38;2.70;;;33.20;43.80;;;;;;4976241;28;20046;-68
2021/06/25 12:22:50;;;;;;;7.78;2.00;;;33.20;43.20;;;;;;4976099;28;20067;-67
2021/06/25 12:25:46;;;;;;;7.05;2.20;;;33.30;43.90;;;;;;4976034;28;20034;-67
2021/06/25 12:28:23;;;;;;;6.72;2.50;;;33.30;43.40;;;;;;4971438;28;20042;-67
2021/06/25 12:30:56;;;;;;;9.02;2.75;;;33.40;43.50;;;;;;4976121;28;20132;-67
2021/06/25 12:33:32;;;;;;;6.88;2.20;;;33.40;43.20;;;;;;4976035;28;20023;-67
2021/06/25 12:36:07;;;;;;;10.75;2.80;;;33.50;43.70;;;;;;4975697;28;20457;-68
2021/06/25 12:38:34;;;;;;;8.65;2.50;;;33.50;44.50;;;;;;4976044;28;20111;-67
2021/06/25 12:41:04;;;;;;;11.63;3.00;;;33.40;44.40;;;;;;4975904;28;20469;-68
2021/06/25 12:43:44;;;;;;;11.40;2.72;;;33.50;44.50;;;;;;4976236;28;20114;-68
2021/06/25 12:46:14;;;;;;;9.00;2.47;;;33.60;44.00;;;;;;4976315;28;20035;-67
2021/06/25 12:49:00;;;;;;;7.20;2.00;;;33.60;43.90;;;;;;4976449;28;20158;-67
2021/06/25 12:51:35;;;;;;;7.63;2.80;;;33.70;43.90;;;;;;4976115;28;20039;-67
2021/06/25 12:54:01;;;;;;;6.20;2.40;;;33.60;44.40;;;;;;4976765;28;20035;-66
2021/06/25 12:56:41;;;;;;;10.27;2.47;;;33.50;44.10;;;;;;4976035;28;20026;-67